首页
METAR-TAF:

METAR-TAF

机场 :

哈里逊, 阿肯色州, 美国

纬度: 36-15-42N, 经度: 093-09-17W, 海拔: 416米

当前天气观测

该预报发布于32分钟前的19:53 UTC
温度 9°C
湿度 29%
气压 1029 hPa
能見度: 16.1公里
天空无云

METAR: KHRO 191953Z AUTO 10SM CLR 09/M08 A3038 RMK AO2 SLP296 T00891078

时间: 14:25 (20:25 UTC)

预报

该预报发布于2小时和42分钟前的17:43 UTC
预报有效从19日的 18点(UTC)到 20日的 18点(UTC)
风速8节,风向
能見度: 10公里
散云层高于10000英尺
多云层高于25000英尺
从 20日的 0300点(UTC)
风速6节,风向东转东北
能見度: 10公里
散云层高于5000英尺
阴天层高于10000英尺
从 20日的 0900点(UTC)
风速7节,风向北转东北
能見度: 10公里
散云层高于2500英尺
阴天层高于5000英尺
短暂存在
从 20日的 10点(UTC)到 20日的 14点(UTC)
能見度: 6.4公里
多云层高于2500英尺
小雪
从 20日的 1500点(UTC)
风速9节,风向
能見度: 10公里
散云层高于5000英尺
阴天层高于10000英尺

TAF: KHRO 191743Z 1918/2018 10008KT P6SM SCT100 BKN250 FM200300 06006KT P6SM SCT050 OVC100 FM200900 03007KT P6SM SCT025 OVC050 TEMPO 2010/2014 4SM -SN BKN025 FM201500 36009KT P6SM SCT050 OVC100

超过4000个机场的气象观测和天气预报(METAR&TAF报告)。

可查询的气象台以黄色和红色小点在地图上表示。

将鼠标移到小点上方,可查看气象台名称。

然后点击查看天气观测和预报。

如需切换地图:点击带黑十字的绿色按钮放大地图;点击带横线的绿色按钮缩小地图;或者点击绿色箭头查看邻近地区的地图。


METAR-TAF: